sensor_id;sensor_type;location;lat;lon;timestamp;pressure;altitude;pressure_sealevel;temperature;humidity
51287;BME280;37364;46.974;18.916;2023-11-21T00:00:16;151758.69;;;5.60;100.00
51287;BME280;37364;46.974;18.916;2023-11-21T00:02:52;151741.94;;;5.53;100.00
51287;BME280;37364;46.974;18.916;2023-11-21T00:05:26;151736.78;;;5.51;100.00
51287;BME280;37364;46.974;18.916;2023-11-21T00:07:59;151747.09;;;5.55;100.00
51287;BME280;37364;46.974;18.916;2023-11-21T00:10:32;151732.91;;;5.49;100.00
51287;BME280;37364;46.974;18.916;2023-11-21T00:13:04;151727.75;;;5.47;100.00
51287;BME280;37364;46.974;18.916;2023-11-21T00:15:35;151723.88;;;5.46;100.00
51287;BME280;37364;46.974;18.916;2023-11-21T00:18:10;151709.69;;;5.40;100.00
51287;BME280;37364;46.974;18.916;2023-11-21T00:20:41;151709.69;;;5.40;100.00
51287;BME280;37364;46.974;18.916;2023-11-21T00:23:12;151716.13;;;5.43;100.00
51287;BME280;37364;46.974;18.916;2023-11-21T00:25:43;151729.03;;;5.48;100.00
51287;BME280;37364;46.974;18.916;2023-11-21T00:28:13;151729.03;;;5.48;100.00
51287;BME280;37364;46.974;18.916;2023-11-21T00:30:45;151739.34;;;5.52;100.00
51287;BME280;37364;46.974;18.916;2023-11-21T00:33:19;151732.91;;;5.49;100.00
51287;BME280;37364;46.974;18.916;2023-11-21T00:35:49;151753.53;;;5.58;100.00
51287;BME280;37364;46.974;18.916;2023-11-21T00:38:19;151752.28;;;5.57;100.00
51287;BME280;37364;46.974;18.916;2023-11-21T00:40:51;151763.84;;;5.62;100.00
51287;BME280;37364;46.974;18.916;2023-11-21T00:43:24;151778.06;;;5.67;100.00
51287;BME280;37364;46.974;18.916;2023-11-21T00:45:54;151772.91;;;5.65;100.00
51287;BME280;37364;46.974;18.916;2023-11-21T00:48:30;151794.81;;;5.74;100.00
51287;BME280;37364;46.974;18.916;2023-11-21T00:51:02;151799.97;;;5.76;100.00
51287;BME280;37364;46.974;18.916;2023-11-21T00:53:33;151818.03;;;5.83;100.00
51287;BME280;37364;46.974;18.916;2023-11-21T00:56:07;151838.69;;;5.91;100.00
51287;BME280;37364;46.974;18.916;2023-11-21T00:58:37;151833.53;;;5.89;100.00
51287;BME280;37364;46.974;18.916;2023-11-21T01:01:09;151833.53;;;5.89;100.00
51287;BME280;37364;46.974;18.916;2023-11-21T01:03:43;151842.56;;;5.93;100.00
51287;BME280;37364;46.974;18.916;2023-11-21T01:06:15;151858.09;;;5.99;100.00
51287;BME280;37364;46.974;18.916;2023-11-21T01:08:47;151865.84;;;6.02;100.00
51287;BME280;37364;46.974;18.916;2023-11-21T01:11:20;151856.81;;;5.99;100.00
51287;BME280;37364;46.974;18.916;2023-11-21T01:13:51;151850.38;;;5.96;100.00
51287;BME280;37364;46.974;18.916;2023-11-21T01:16:21;151858.09;;;5.99;100.00
51287;BME280;37364;46.974;18.916;2023-11-21T01:18:55;151843.84;;;5.93;100.00
51287;BME280;37364;46.974;18.916;2023-11-21T01:21:29;151837.41;;;5.91;100.00
51287;BME280;37364;46.974;18.916;2023-11-21T01:24:03;151828.34;;;5.87;100.00
51287;BME280;37364;46.974;18.916;2023-11-21T01:26:36;151818.03;;;5.83;100.00
51287;BME280;37364;46.974;18.916;2023-11-21T01:29:08;151818.03;;;5.83;100.00
51287;BME280;37364;46.974;18.916;2023-11-21T01:31:40;151819.31;;;5.84;100.00
51287;BME280;37364;46.974;18.916;2023-11-21T01:34:13;151825.81;;;5.86;100.00
51287;BME280;37364;46.974;18.916;2023-11-21T01:36:45;151812.88;;;5.81;100.00
51287;BME280;37364;46.974;18.916;2023-11-21T01:39:16;151801.28;;;5.77;100.00
51287;BME280;37364;46.974;18.916;2023-11-21T01:41:51;151799.97;;;5.76;100.00
51287;BME280;37364;46.974;18.916;2023-11-21T01:44:22;151801.28;;;5.77;100.00
51287;BME280;37364;46.974;18.916;2023-11-21T01:46:52;151796.13;;;5.74;100.00
51287;BME280;37364;46.974;18.916;2023-11-21T01:49:28;151799.97;;;5.76;100.00
51287;BME280;37364;46.974;18.916;2023-11-21T01:51:59;151796.13;;;5.74;100.00
51287;BME280;37364;46.974;18.916;2023-11-21T01:54:35;151789.66;;;5.72;100.00
51287;BME280;37364;46.974;18.916;2023-11-21T01:57:06;151783.22;;;5.69;100.00
51287;BME280;37364;46.974;18.916;2023-11-21T01:59:41;151809.00;;;5.80;100.00
51287;BME280;37364;46.974;18.916;2023-11-21T02:02:12;151818.03;;;5.83;100.00
51287;BME280;37364;46.974;18.916;2023-11-21T02:04:48;151911.00;;;6.20;100.00
51287;BME280;37364;46.974;18.916;2023-11-21T02:07:18;151974.25;;;6.45;100.00
51287;BME280;37364;46.974;18.916;2023-11-21T02:09:55;152019.44;;;6.63;100.00
51287;BME280;37364;46.974;18.916;2023-11-21T02:12:26;151983.31;;;6.49;100.00
51287;BME280;37364;46.974;18.916;2023-11-21T02:14:56;151976.81;;;6.46;100.00
51287;BME280;37364;46.974;18.916;2023-11-21T02:17:27;152040.09;;;6.71;100.00
51287;BME280;37364;46.974;18.916;2023-11-21T02:20:03;152200.25;;;7.35;100.00
51287;BME280;37364;46.974;18.916;2023-11-21T02:22:37;152213.13;;;7.40;100.00
51287;BME280;37364;46.974;18.916;2023-11-21T02:25:17;152270.00;;;7.63;100.00
51287;BME280;37364;46.974;18.916;2023-11-21T02:27:50;152295.81;;;7.73;100.00
51287;BME280;37364;46.974;18.916;2023-11-21T02:30:26;152262.22;;;7.60;100.00
51287;BME280;37364;46.974;18.916;2023-11-21T02:33:03;152228.63;;;7.46;100.00
51287;BME280;37364;46.974;18.916;2023-11-21T02:35:34;152184.69;;;7.29;100.00
51287;BME280;37364;46.974;18.916;2023-11-21T02:38:11;152138.22;;;7.10;100.00
51287;BME280;37364;46.974;18.916;2023-11-21T02:40:45;152093.03;;;6.92;100.00
51287;BME280;37364;46.974;18.916;2023-11-21T02:43:19;152068.50;;;6.83;100.00
51287;BME280;37364;46.974;18.916;2023-11-21T02:45:49;152034.91;;;6.69;100.00
51287;BME280;37364;46.974;18.916;2023-11-21T02:48:21;152011.66;;;6.60;100.00
51287;BME280;37364;46.974;18.916;2023-11-21T02:50:53;152003.94;;;6.57;100.00
51287;BME280;37364;46.974;18.916;2023-11-21T02:53:24;151983.31;;;6.49;100.00
51287;BME280;37364;46.974;18.916;2023-11-21T02:55:57;151967.78;;;6.43;100.00
51287;BME280;37364;46.974;18.916;2023-11-21T02:58:28;151956.19;;;6.38;100.00
51287;BME280;37364;46.974;18.916;2023-11-21T03:01:02;151949.72;;;6.36;100.00
51287;BME280;37364;46.974;18.916;2023-11-21T03:03:41;151935.53;;;6.30;100.00
51287;BME280;37364;46.974;18.916;2023-11-21T03:06:13;151938.09;;;6.31;100.00
51287;BME280;37364;46.974;18.916;2023-11-21T03:08:44;151916.16;;;6.22;100.00
51287;BME280;37364;46.974;18.916;2023-11-21T03:11:18;151918.72;;;6.23;100.00
51287;BME280;37364;46.974;18.916;2023-11-21T03:13:49;151905.84;;;6.18;100.00
51287;BME280;37364;46.974;18.916;2023-11-21T03:16:21;151894.25;;;6.13;100.00
51287;BME280;37364;46.974;18.916;2023-11-21T03:18:53;151889.03;;;6.11;100.00
51287;BME280;37364;46.974;18.916;2023-11-21T03:21:27;151876.16;;;6.06;100.00
51287;BME280;37364;46.974;18.916;2023-11-21T03:23:57;151880.06;;;6.08;100.00
51287;BME280;37364;46.974;18.916;2023-11-21T03:26:32;151903.25;;;6.17;100.00
51287;BME280;37364;46.974;18.916;2023-11-21T03:29:10;151890.38;;;6.12;100.00
51287;BME280;37364;46.974;18.916;2023-11-21T03:31:43;151883.88;;;6.09;100.00
51287;BME280;37364;46.974;18.916;2023-11-21T03:34:19;151867.13;;;6.03;100.00
51287;BME280;37364;46.974;18.916;2023-11-21T03:36:50;151854.22;;;5.98;100.00
51287;BME280;37364;46.974;18.916;2023-11-21T03:39:20;151849.03;;;5.96;100.00
51287;BME280;37364;46.974;18.916;2023-11-21T03:41:57;151821.94;;;5.85;100.00
51287;BME280;37364;46.974;18.916;2023-11-21T03:44:27;151836.13;;;5.90;100.00
51287;BME280;37364;46.974;18.916;2023-11-21T03:46:57;151832.25;;;5.89;100.00
51287;BME280;37364;46.974;18.916;2023-11-21T03:49:31;151828.34;;;5.87;100.00
51287;BME280;37364;46.974;18.916;2023-11-21T03:52:02;151829.63;;;5.88;100.00
51287;BME280;37364;46.974;18.916;2023-11-21T03:54:43;151820.66;;;5.84;100.00
51287;BME280;37364;46.974;18.916;2023-11-21T03:57:19;151830.97;;;5.88;100.00
51287;BME280;37364;46.974;18.916;2023-11-21T03:59:50;151851.66;;;5.97;100.00
51287;BME280;37364;46.974;18.916;2023-11-21T04:02:20;151840.00;;;5.92;100.00
51287;BME280;37364;46.974;18.916;2023-11-21T04:04:53;151834.78;;;5.90;100.00
51287;BME280;37364;46.974;18.916;2023-11-21T04:07:28;151846.44;;;5.94;100.00
51287;BME280;37364;46.974;18.916;2023-11-21T04:10:01;151834.78;;;5.90;100.00
51287;BME280;37364;46.974;18.916;2023-11-21T04:12:35;151820.66;;;5.84;100.00
51287;BME280;37364;46.974;18.916;2023-11-21T04:15:09;151806.44;;;5.79;100.00
51287;BME280;37364;46.974;18.916;2023-11-21T04:17:44;151794.81;;;5.74;100.00
51287;BME280;37364;46.974;18.916;2023-11-21T04:20:16;151780.59;;;5.68;100.00
51287;BME280;37364;46.974;18.916;2023-11-21T04:22:56;151776.78;;;5.67;100.00
51287;BME280;37364;46.974;18.916;2023-11-21T04:25:31;151765.13;;;5.62;100.00
51287;BME280;37364;46.974;18.916;2023-11-21T04:28:04;151774.19;;;5.66;100.00
51287;BME280;37364;46.974;18.916;2023-11-21T04:30:34;151771.63;;;5.65;100.00
51287;BME280;37364;46.974;18.916;2023-11-21T04:33:06;151767.75;;;5.63;100.00
51287;BME280;37364;46.974;18.916;2023-11-21T04:35:37;151761.31;;;5.61;100.00
51287;BME280;37364;46.974;18.916;2023-11-21T04:38:09;151759.97;;;5.60;100.00
51287;BME280;37364;46.974;18.916;2023-11-21T04:40:39;151758.69;;;5.60;100.00
51287;BME280;37364;46.974;18.916;2023-11-21T04:43:12;151757.41;;;5.59;100.00
51287;BME280;37364;46.974;18.916;2023-11-21T04:45:42;151748.38;;;5.55;100.00
51287;BME280;37364;46.974;18.916;2023-11-21T04:48:13;151754.81;;;5.58;100.00
51287;BME280;37364;46.974;18.916;2023-11-21T04:50:43;151754.81;;;5.58;100.00
51287;BME280;37364;46.974;18.916;2023-11-21T04:53:14;151753.53;;;5.58;100.00
51287;BME280;37364;46.974;18.916;2023-11-21T04:55:44;151749.66;;;5.56;100.00
51287;BME280;37364;46.974;18.916;2023-11-21T04:58:19;151745.78;;;5.54;100.00
51287;BME280;37364;46.974;18.916;2023-11-21T05:01:03;151747.09;;;5.55;100.00
51287;BME280;37364;46.974;18.916;2023-11-21T05:03:39;151738.06;;;5.51;100.00
51287;BME280;37364;46.974;18.916;2023-11-21T05:06:19;151729.03;;;5.48;100.00
51287;BME280;37364;46.974;18.916;2023-11-21T05:08:55;151723.88;;;5.46;100.00
51287;BME280;37364;46.974;18.916;2023-11-21T05:11:26;151725.16;;;5.46;100.00
51287;BME280;37364;46.974;18.916;2023-11-21T05:14:00;151717.44;;;5.43;100.00
51287;BME280;37364;46.974;18.916;2023-11-21T05:16:41;151723.88;;;5.46;100.00
51287;BME280;37364;46.974;18.916;2023-11-21T05:19:24;151722.59;;;5.45;100.00
51287;BME280;37364;46.974;18.916;2023-11-21T05:21:58;151718.72;;;5.44;100.00
51287;BME280;37364;46.974;18.916;2023-11-21T05:24:35;151720.00;;;5.44;100.00
51287;BME280;37364;46.974;18.916;2023-11-21T05:27:11;151729.03;;;5.48;100.00
51287;BME280;37364;46.974;18.916;2023-11-21T05:29:52;151748.38;;;5.55;100.00
51287;BME280;37364;46.974;18.916;2023-11-21T05:32:23;151750.94;;;5.57;100.00
51287;BME280;37364;46.974;18.916;2023-11-21T05:34:55;151757.41;;;5.59;100.00
51287;BME280;37364;46.974;18.916;2023-11-21T05:37:27;151775.44;;;5.66;100.00
51287;BME280;37364;46.974;18.916;2023-11-21T05:39:57;151784.50;;;5.70;100.00
51287;BME280;37364;46.974;18.916;2023-11-21T05:42:31;151793.53;;;5.73;100.00
51287;BME280;37364;46.974;18.916;2023-11-21T05:45:05;151797.41;;;5.75;100.00
51287;BME280;37364;46.974;18.916;2023-11-21T05:47:39;151774.19;;;5.66;100.00
51287;BME280;37364;46.974;18.916;2023-11-21T05:50:11;151762.59;;;5.61;100.00
51287;BME280;37364;46.974;18.916;2023-11-21T05:52:42;151745.78;;;5.54;100.00
51287;BME280;37364;46.974;18.916;2023-11-21T05:55:13;151775.44;;;5.66;100.00
51287;BME280;37364;46.974;18.916;2023-11-21T05:57:44;151758.69;;;5.60;100.00
51287;BME280;37364;46.974;18.916;2023-11-21T06:00:18;151750.94;;;5.57;100.00
51287;BME280;37364;46.974;18.916;2023-11-21T06:02:50;151765.13;;;5.62;100.00
51287;BME280;37364;46.974;18.916;2023-11-21T06:05:24;151759.97;;;5.60;100.00
51287;BME280;37364;46.974;18.916;2023-11-21T06:07:56;151794.81;;;5.74;100.00
51287;BME280;37364;46.974;18.916;2023-11-21T06:10:28;151785.81;;;5.70;100.00
51287;BME280;37364;46.974;18.916;2023-11-21T06:12:58;151776.78;;;5.67;100.00
51287;BME280;37364;46.974;18.916;2023-11-21T06:15:33;151801.28;;;5.77;100.00
51287;BME280;37364;46.974;18.916;2023-11-21T06:18:05;151792.25;;;5.73;100.00
51287;BME280;37364;46.974;18.916;2023-11-21T06:20:41;151797.41;;;5.75;100.00
51287;BME280;37364;46.974;18.916;2023-11-21T06:23:11;151789.66;;;5.72;100.00
51287;BME280;37364;46.974;18.916;2023-11-21T06:25:42;151784.50;;;5.70;100.00
51287;BME280;37364;46.974;18.916;2023-11-21T06:28:12;151787.09;;;5.71;100.00
51287;BME280;37364;46.974;18.916;2023-11-21T06:30:48;151827.09;;;5.87;100.00
51287;BME280;37364;46.974;18.916;2023-11-21T06:33:20;151803.84;;;5.78;100.00
51287;BME280;37364;46.974;18.916;2023-11-21T06:35:50;151837.41;;;5.91;100.00
51287;BME280;37364;46.974;18.916;2023-11-21T06:38:22;151852.94;;;5.97;100.00
51287;BME280;37364;46.974;18.916;2023-11-21T06:40:57;151846.44;;;5.94;100.00
51287;BME280;37364;46.974;18.916;2023-11-21T06:43:32;151856.81;;;5.99;100.00
51287;BME280;37364;46.974;18.916;2023-11-21T06:46:06;151834.78;;;5.90;100.00
51287;BME280;37364;46.974;18.916;2023-11-21T06:48:36;151830.97;;;5.88;100.00
51287;BME280;37364;46.974;18.916;2023-11-21T06:51:07;151829.63;;;5.88;100.00
51287;BME280;37364;46.974;18.916;2023-11-21T06:53:37;151823.19;;;5.85;100.00
51287;BME280;37364;46.974;18.916;2023-11-21T06:56:15;151838.69;;;5.91;100.00
51287;BME280;37364;46.974;18.916;2023-11-21T06:58:46;151830.97;;;5.88;100.00
51287;BME280;37364;46.974;18.916;2023-11-21T07:01:26;151836.13;;;5.90;100.00
51287;BME280;37364;46.974;18.916;2023-11-21T07:03:57;151841.28;;;5.92;100.00
51287;BME280;37364;46.974;18.916;2023-11-21T07:06:29;151832.25;;;5.89;100.00
51287;BME280;37364;46.974;18.916;2023-11-21T07:08:59;151846.44;;;5.94;100.00
51287;BME280;37364;46.974;18.916;2023-11-21T07:11:30;151847.78;;;5.95;100.00
51287;BME280;37364;46.974;18.916;2023-11-21T07:14:01;151854.22;;;5.98;100.00
51287;BME280;37364;46.974;18.916;2023-11-21T07:16:37;151858.09;;;5.99;100.00
51287;BME280;37364;46.974;18.916;2023-11-21T07:19:08;151859.38;;;6.00;100.00
51287;BME280;37364;46.974;18.916;2023-11-21T07:21:39;151861.97;;;6.01;100.00
51287;BME280;37364;46.974;18.916;2023-11-21T07:24:10;151880.06;;;6.08;100.00
51287;BME280;37364;46.974;18.916;2023-11-21T07:26:40;151882.59;;;6.09;100.00
51287;BME280;37364;46.974;18.916;2023-11-21T07:29:11;151890.38;;;6.12;100.00
51287;BME280;37364;46.974;18.916;2023-11-21T07:31:44;151895.53;;;6.14;100.00
51287;BME280;37364;46.974;18.916;2023-11-21T07:34:14;151901.97;;;6.17;100.00
51287;BME280;37364;46.974;18.916;2023-11-21T07:36:45;151917.44;;;6.23;100.00
51287;BME280;37364;46.974;18.916;2023-11-21T07:39:15;151939.41;;;6.31;100.00
51287;BME280;37364;46.974;18.916;2023-11-21T07:41:46;151941.97;;;6.32;100.00
51287;BME280;37364;46.974;18.916;2023-11-21T07:44:17;151939.41;;;6.31;100.00
51287;BME280;37364;46.974;18.916;2023-11-21T07:46:50;151949.72;;;6.36;100.00
51287;BME280;37364;46.974;18.916;2023-11-21T07:49:27;151956.19;;;6.38;100.00
51287;BME280;37364;46.974;18.916;2023-11-21T07:51:58;151979.41;;;6.47;100.00
51287;BME280;37364;46.974;18.916;2023-11-21T07:54:30;151980.69;;;6.48;100.00
51287;BME280;37364;46.974;18.916;2023-11-21T07:57:03;151988.47;;;6.51;100.00
51287;BME280;37364;46.974;18.916;2023-11-21T07:59:35;151992.31;;;6.52;100.00
51287;BME280;37364;46.974;18.916;2023-11-21T08:02:08;151989.75;;;6.51;100.00
51287;BME280;37364;46.974;18.916;2023-11-21T08:04:38;151998.78;;;6.55;100.00
51287;BME280;37364;46.974;18.916;2023-11-21T08:07:08;151997.47;;;6.54;100.00
51287;BME280;37364;46.974;18.916;2023-11-21T08:09:39;152002.69;;;6.57;100.00
51287;BME280;37364;46.974;18.916;2023-11-21T08:12:11;151994.91;;;6.53;100.00
51287;BME280;37364;46.974;18.916;2023-11-21T08:14:42;151993.63;;;6.53;100.00
51287;BME280;37364;46.974;18.916;2023-11-21T08:17:15;152005.22;;;6.58;100.00
51287;BME280;37364;46.974;18.916;2023-11-21T08:19:47;152013.00;;;6.61;100.00
51287;BME280;37364;46.974;18.916;2023-11-21T08:22:18;152003.94;;;6.57;100.00
51287;BME280;37364;46.974;18.916;2023-11-21T08:24:49;152009.13;;;6.59;100.00
51287;BME280;37364;46.974;18.916;2023-11-21T08:27:20;152022.00;;;6.64;100.00
51287;BME280;37364;46.974;18.916;2023-11-21T08:29:51;152023.31;;;6.65;100.00
51287;BME280;37364;46.974;18.916;2023-11-21T08:32:26;152022.00;;;6.64;100.00
51287;BME280;37364;46.974;18.916;2023-11-21T08:34:56;152020.72;;;6.64;100.00
51287;BME280;37364;46.974;18.916;2023-11-21T08:37:27;152041.38;;;6.72;100.00
51287;BME280;37364;46.974;18.916;2023-11-21T08:39:58;152027.16;;;6.66;100.00
51287;BME280;37364;46.974;18.916;2023-11-21T08:42:29;152037.53;;;6.70;100.00
51287;BME280;37364;46.974;18.916;2023-11-21T08:45:00;152037.53;;;6.70;100.00
51287;BME280;37364;46.974;18.916;2023-11-21T08:47:33;152027.16;;;6.66;100.00
51287;BME280;37364;46.974;18.916;2023-11-21T08:50:06;152023.31;;;6.65;100.00
51287;BME280;37364;46.974;18.916;2023-11-21T08:52:39;152013.00;;;6.61;100.00
51287;BME280;37364;46.974;18.916;2023-11-21T08:55:09;152002.69;;;6.57;100.00
51287;BME280;37364;46.974;18.916;2023-11-21T08:57:44;152011.66;;;6.60;100.00
51287;BME280;37364;46.974;18.916;2023-11-21T09:00:16;151994.91;;;6.53;100.00
51287;BME280;37364;46.974;18.916;2023-11-21T09:02:49;152011.66;;;6.60;100.00
51287;BME280;37364;46.974;18.916;2023-11-21T09:05:20;152013.00;;;6.61;100.00
51287;BME280;37364;46.974;18.916;2023-11-21T09:07:50;152022.00;;;6.64;100.00
51287;BME280;37364;46.974;18.916;2023-11-21T09:10:20;152022.00;;;6.64;100.00
51287;BME280;37364;46.974;18.916;2023-11-21T09:12:52;152023.31;;;6.65;100.00
51287;BME280;37364;46.974;18.916;2023-11-21T09:15:23;152025.88;;;6.66;100.00
51287;BME280;37364;46.974;18.916;2023-11-21T09:17:56;152032.38;;;6.68;100.00
51287;BME280;37364;46.974;18.916;2023-11-21T09:20:27;152029.75;;;6.67;100.00
51287;BME280;37364;46.974;18.916;2023-11-21T09:22:58;152031.03;;;6.68;100.00
51287;BME280;37364;46.974;18.916;2023-11-21T09:25:28;152037.53;;;6.70;100.00
51287;BME280;37364;46.974;18.916;2023-11-21T09:27:59;152037.53;;;6.70;100.00
51287;BME280;37364;46.974;18.916;2023-11-21T09:30:29;152024.59;;;6.65;100.00
51287;BME280;37364;46.974;18.916;2023-11-21T09:33:04;152047.84;;;6.75;100.00
51287;BME280;37364;46.974;18.916;2023-11-21T09:35:35;152055.56;;;6.78;100.00
51287;BME280;37364;46.974;18.916;2023-11-21T09:38:06;152041.38;;;6.72;100.00
51287;BME280;37364;46.974;18.916;2023-11-21T09:40:38;152054.28;;;6.77;100.00
51287;BME280;37364;46.974;18.916;2023-11-21T09:43:16;152050.41;;;6.76;100.00
51287;BME280;37364;46.974;18.916;2023-11-21T09:45:56;152051.69;;;6.76;100.00
51287;BME280;37364;46.974;18.916;2023-11-21T09:48:33;152071.06;;;6.84;100.00
51287;BME280;37364;46.974;18.916;2023-11-21T09:51:06;152073.66;;;6.85;100.00
51287;BME280;37364;46.974;18.916;2023-11-21T09:53:37;152073.66;;;6.85;100.00
51287;BME280;37364;46.974;18.916;2023-11-21T09:56:10;152065.91;;;6.82;100.00
51287;BME280;37364;46.974;18.916;2023-11-21T09:58:43;152078.81;;;6.87;100.00
51287;BME280;37364;46.974;18.916;2023-11-21T10:01:16;152099.47;;;6.95;100.00
51287;BME280;37364;46.974;18.916;2023-11-21T10:03:51;152100.75;;;6.96;100.00
51287;BME280;37364;46.974;18.916;2023-11-21T10:06:22;152105.91;;;6.98;100.00
51287;BME280;37364;46.974;18.916;2023-11-21T10:08:55;152102.09;;;6.96;100.00
51287;BME280;37364;46.974;18.916;2023-11-21T10:11:27;152116.28;;;7.02;100.00
51287;BME280;37364;46.974;18.916;2023-11-21T10:14:04;152113.69;;;7.01;100.00
51287;BME280;37364;46.974;18.916;2023-11-21T10:16:41;152093.03;;;6.92;100.00
51287;BME280;37364;46.974;18.916;2023-11-21T10:19:28;152094.31;;;6.93;100.00
51287;BME280;37364;46.974;18.916;2023-11-21T10:22:02;152109.81;;;6.99;100.00
51287;BME280;37364;46.974;18.916;2023-11-21T10:24:34;152117.56;;;7.02;100.00
51287;BME280;37364;46.974;18.916;2023-11-21T10:27:18;152124.00;;;7.05;100.00
51287;BME280;37364;46.974;18.916;2023-11-21T10:29:51;152122.72;;;7.04;100.00
51287;BME280;37364;46.974;18.916;2023-11-21T10:32:21;152109.81;;;6.99;100.00
51287;BME280;37364;46.974;18.916;2023-11-21T10:34:59;152130.47;;;7.07;100.00
51287;BME280;37364;46.974;18.916;2023-11-21T10:37:33;152124.00;;;7.05;100.00
51287;BME280;37364;46.974;18.916;2023-11-21T10:40:08;152121.47;;;7.04;100.00
51287;BME280;37364;46.974;18.916;2023-11-21T10:42:40;152130.47;;;7.07;100.00
51287;BME280;37364;46.974;18.916;2023-11-21T10:45:13;152126.63;;;7.06;100.00
51287;BME280;37364;46.974;18.916;2023-11-21T10:47:44;152127.91;;;7.06;100.00
51287;BME280;37364;46.974;18.916;2023-11-21T10:50:18;152130.47;;;7.07;100.00
51287;BME280;37364;46.974;18.916;2023-11-21T10:52:48;152138.22;;;7.10;100.00
51287;BME280;37364;46.974;18.916;2023-11-21T10:55:19;152151.16;;;7.16;100.00
51287;BME280;37364;46.974;18.916;2023-11-21T10:57:53;152144.66;;;7.13;100.00
51287;BME280;37364;46.974;18.916;2023-11-21T11:00:24;152140.84;;;7.11;100.00
51287;BME280;37364;46.974;18.916;2023-11-21T11:02:58;152146.00;;;7.13;100.00
51287;BME280;37364;46.974;18.916;2023-11-21T11:05:31;152152.44;;;7.16;100.00
51287;BME280;37364;46.974;18.916;2023-11-21T11:08:05;152156.31;;;7.18;100.00
51287;BME280;37364;46.974;18.916;2023-11-21T11:10:36;152155.00;;;7.17;100.00
51287;BME280;37364;46.974;18.916;2023-11-21T11:13:07;152147.28;;;7.14;100.00
51287;BME280;37364;46.974;18.916;2023-11-21T11:15:37;152140.84;;;7.11;100.00
51287;BME280;37364;46.974;18.916;2023-11-21T11:18:10;152158.88;;;7.19;100.00
51287;BME280;37364;46.974;18.916;2023-11-21T11:20:53;152160.16;;;7.19;100.00
51287;BME280;37364;46.974;18.916;2023-11-21T11:23:34;152151.16;;;7.16;100.00
51287;BME280;37364;46.974;18.916;2023-11-21T11:26:20;152164.03;;;7.21;100.00
51287;BME280;37364;46.974;18.916;2023-11-21T11:29:01;152182.16;;;7.28;100.00
51287;BME280;37364;46.974;18.916;2023-11-21T11:31:40;152182.16;;;7.28;100.00
51287;BME280;37364;46.974;18.916;2023-11-21T11:34:23;152171.81;;;7.24;100.00
51287;BME280;37364;46.974;18.916;2023-11-21T11:37:01;152169.22;;;7.23;100.00
51287;BME280;37364;46.974;18.916;2023-11-21T11:39:36;152171.81;;;7.24;100.00
51287;BME280;37364;46.974;18.916;2023-11-21T11:42:13;152182.16;;;7.28;100.00
51287;BME280;37364;46.974;18.916;2023-11-21T11:44:52;152180.88;;;7.27;100.00
51287;BME280;37364;46.974;18.916;2023-11-21T11:47:32;152174.38;;;7.25;100.00
51287;BME280;37364;46.974;18.916;2023-11-21T11:50:05;152187.31;;;7.30;100.00
51287;BME280;37364;46.974;18.916;2023-11-21T11:52:44;152198.91;;;7.35;100.00
51287;BME280;37364;46.974;18.916;2023-11-21T11:55:16;152197.63;;;7.34;100.00
51287;BME280;37364;46.974;18.916;2023-11-21T11:57:49;152204.06;;;7.37;100.00
51287;BME280;37364;46.974;18.916;2023-11-21T12:00:22;152170.53;;;7.23;100.00
51287;BME280;37364;46.974;18.916;2023-11-21T12:02:55;152180.88;;;7.27;100.00
51287;BME280;37364;46.974;18.916;2023-11-21T12:05:30;152167.94;;;7.22;100.00
51287;BME280;37364;46.974;18.916;2023-11-21T12:08:09;152187.31;;;7.30;100.00
51287;BME280;37364;46.974;18.916;2023-11-21T12:10:39;152182.16;;;7.28;100.00
51287;BME280;37364;46.974;18.916;2023-11-21T12:13:12;152210.56;;;7.39;100.00
51287;BME280;37364;46.974;18.916;2023-11-21T12:15:42;152233.78;;;7.48;100.00
51287;BME280;37364;46.974;18.916;2023-11-21T12:18:13;152219.56;;;7.43;100.00
51287;BME280;37364;46.974;18.916;2023-11-21T12:20:45;152241.56;;;7.51;100.00
51287;BME280;37364;46.974;18.916;2023-11-21T12:23:19;152270.00;;;7.63;100.00
51287;BME280;37364;46.974;18.916;2023-11-21T12:25:50;152289.38;;;7.70;100.00
51287;BME280;37364;46.974;18.916;2023-11-21T12:28:21;152297.09;;;7.73;100.00
51287;BME280;37364;46.974;18.916;2023-11-21T12:30:51;152315.22;;;7.81;100.00
51287;BME280;37364;46.974;18.916;2023-11-21T12:33:37;152307.44;;;7.78;100.00
51287;BME280;37364;46.974;18.916;2023-11-21T12:36:08;152313.94;;;7.80;100.00
51287;BME280;37364;46.974;18.916;2023-11-21T12:38:41;152316.50;;;7.81;100.00
51287;BME280;37364;46.974;18.916;2023-11-21T12:41:12;152320.38;;;7.83;100.00
51287;BME280;37364;46.974;18.916;2023-11-21T12:43:43;152332.00;;;7.87;100.00
51287;BME280;37364;46.974;18.916;2023-11-21T12:46:15;152326.81;;;7.85;100.00
51287;BME280;37364;46.974;18.916;2023-11-21T12:48:47;152316.50;;;7.81;100.00
51287;BME280;37364;46.974;18.916;2023-11-21T12:51:18;152326.81;;;7.85;100.00
51287;BME280;37364;46.974;18.916;2023-11-21T12:53:51;152316.50;;;7.81;100.00
51287;BME280;37364;46.974;18.916;2023-11-21T12:56:22;152319.09;;;7.82;100.00
51287;BME280;37364;46.974;18.916;2023-11-21T12:58:54;152328.09;;;7.86;100.00
51287;BME280;37364;46.974;18.916;2023-11-21T13:01:26;152332.00;;;7.87;100.00
51287;BME280;37364;46.974;18.916;2023-11-21T13:03:58;152342.31;;;7.91;100.00
51287;BME280;37364;46.974;18.916;2023-11-21T13:06:31;152347.50;;;7.93;100.00
51287;BME280;37364;46.974;18.916;2023-11-21T13:09:10;152346.22;;;7.93;100.00